createdAt,value
2023-04-22T00:00:21.840Z,100.00
2023-04-22T00:02:48.133Z,100.00
2023-04-22T00:05:20.295Z,100.00
2023-04-22T00:07:46.780Z,100.00
2023-04-22T00:10:12.960Z,100.00
2023-04-22T00:12:38.761Z,100.00
2023-04-22T00:15:05.376Z,100.00
2023-04-22T00:17:32.246Z,100.00
2023-04-22T00:19:58.519Z,100.00
2023-04-22T00:22:24.412Z,100.00
2023-04-22T00:24:50.183Z,100.00
2023-04-22T00:27:15.945Z,100.00
2023-04-22T00:29:41.746Z,100.00
2023-04-22T00:32:07.527Z,100.00
2023-04-22T00:34:33.346Z,100.00
2023-04-22T00:36:59.272Z,100.00
2023-04-22T00:39:25.172Z,100.00
2023-04-22T00:41:51.523Z,100.00
2023-04-22T00:44:17.760Z,100.00
2023-04-22T00:46:46.763Z,100.00
2023-04-22T00:49:13.878Z,100.00
2023-04-22T00:51:42.716Z,100.00
2023-04-22T00:54:08.535Z,100.00
2023-04-22T00:56:37.921Z,100.00
2023-04-22T00:59:03.898Z,100.00
2023-04-22T01:01:29.820Z,100.00
2023-04-22T01:03:56.665Z,100.00
2023-04-22T01:06:23.640Z,100.00
2023-04-22T01:08:49.697Z,100.00
2023-04-22T01:11:15.428Z,100.00
2023-04-22T01:13:41.460Z,100.00
2023-04-22T01:16:08.335Z,100.00
2023-04-22T01:18:36.960Z,100.00
2023-04-22T01:21:03.117Z,100.00
2023-04-22T01:23:29.537Z,100.00
2023-04-22T01:25:56.478Z,100.00
2023-04-22T01:28:22.793Z,100.00
2023-04-22T01:30:49.070Z,100.00
2023-04-22T01:33:15.937Z,100.00
2023-04-22T01:35:42.439Z,100.00
2023-04-22T01:38:10.625Z,100.00
2023-04-22T01:40:37.631Z,100.00
2023-04-22T01:43:03.694Z,100.00
2023-04-22T01:45:29.514Z,100.00
2023-04-22T01:47:55.424Z,100.00
2023-04-22T01:50:22.109Z,100.00
2023-04-22T01:52:48.173Z,100.00
2023-04-22T01:55:14.709Z,100.00
2023-04-22T01:57:40.856Z,100.00
2023-04-22T02:00:07.729Z,100.00
2023-04-22T02:02:33.908Z,100.00
2023-04-22T02:04:59.853Z,100.00
2023-04-22T02:07:25.703Z,100.00
2023-04-22T02:09:51.732Z,100.00
2023-04-22T02:12:17.508Z,100.00
2023-04-22T02:14:43.333Z,100.00
2023-04-22T02:17:10.084Z,100.00
2023-04-22T02:19:35.882Z,100.00
2023-04-22T02:22:01.822Z,100.00
2023-04-22T02:24:27.697Z,100.00
2023-04-22T02:26:53.455Z,100.00
2023-04-22T02:29:19.307Z,100.00
2023-04-22T02:31:45.124Z,100.00
2023-04-22T02:34:10.914Z,100.00
2023-04-22T02:36:38.801Z,100.00
2023-04-22T02:39:07.375Z,100.00
2023-04-22T02:41:33.250Z,100.00
2023-04-22T02:43:58.995Z,100.00
2023-04-22T02:46:24.885Z,100.00
2023-04-22T02:48:50.758Z,100.00
2023-04-22T02:51:16.572Z,100.00
2023-04-22T02:53:42.462Z,100.00
2023-04-22T02:56:08.462Z,100.00
2023-04-22T02:58:34.464Z,100.00
2023-04-22T03:01:00.489Z,100.00
2023-04-22T03:03:26.578Z,100.00
2023-04-22T03:05:52.730Z,100.00
2023-04-22T03:08:19.293Z,100.00
2023-04-22T03:10:45.370Z,100.00
2023-04-22T03:13:12.942Z,100.00
2023-04-22T03:15:40.619Z,100.00
2023-04-22T03:18:06.901Z,100.00
2023-04-22T03:20:33.107Z,100.00
2023-04-22T03:22:58.907Z,100.00
2023-04-22T03:25:24.894Z,100.00
2023-04-22T03:27:50.760Z,100.00
2023-04-22T03:30:16.710Z,100.00
2023-04-22T03:32:42.507Z,100.00
2023-04-22T03:35:08.509Z,100.00
2023-04-22T03:37:34.321Z,100.00
2023-04-22T03:40:00.131Z,100.00
2023-04-22T03:42:25.946Z,100.00
2023-04-22T03:44:52.204Z,100.00
2023-04-22T03:47:18.111Z,100.00
2023-04-22T03:49:44.594Z,100.00
2023-04-22T03:52:10.419Z,100.00
2023-04-22T03:54:36.278Z,100.00
2023-04-22T03:57:02.193Z,100.00
2023-04-22T03:59:28.078Z,100.00
2023-04-22T04:01:53.926Z,100.00
2023-04-22T04:04:20.233Z,100.00
2023-04-22T04:06:46.327Z,100.00
2023-04-22T04:09:12.260Z,100.00
2023-04-22T04:11:38.041Z,100.00
2023-04-22T04:14:03.811Z,100.00
2023-04-22T04:16:29.815Z,100.00
2023-04-22T04:18:55.649Z,100.00
2023-04-22T04:21:21.449Z,100.00
2023-04-22T04:23:47.404Z,100.00
2023-04-22T04:26:14.403Z,100.00
2023-04-22T04:28:40.912Z,100.00
2023-04-22T04:31:09.255Z,100.00
2023-04-22T04:33:36.241Z,100.00
2023-04-22T04:36:02.432Z,100.00
2023-04-22T04:38:28.342Z,100.00
2023-04-22T04:40:54.188Z,100.00
2023-04-22T04:43:20.506Z,100.00
2023-04-22T04:45:48.515Z,100.00
2023-04-22T04:48:15.872Z,100.00
2023-04-22T04:50:42.462Z,100.00
2023-04-22T04:53:09.785Z,100.00
2023-04-22T04:55:36.160Z,100.00
2023-04-22T04:58:02.156Z,100.00
2023-04-22T05:00:28.123Z,100.00
2023-04-22T05:02:53.971Z,100.00
2023-04-22T05:05:19.910Z,100.00
2023-04-22T05:07:45.883Z,100.00
2023-04-22T05:10:11.873Z,100.00
2023-04-22T05:12:37.980Z,100.00
2023-04-22T05:15:04.524Z,100.00
2023-04-22T05:17:30.941Z,100.00
2023-04-22T05:19:56.875Z,100.00
2023-04-22T05:22:23.151Z,100.00
2023-04-22T05:24:48.971Z,100.00
2023-04-22T05:27:14.917Z,100.00
2023-04-22T05:29:40.996Z,100.00
2023-04-22T05:32:08.172Z,100.00
2023-04-22T05:34:34.978Z,100.00
2023-04-22T05:37:04.154Z,100.00
2023-04-22T05:39:30.037Z,100.00
2023-04-22T05:41:55.862Z,100.00
2023-04-22T05:44:21.636Z,100.00
2023-04-22T05:46:47.437Z,100.00
2023-04-22T05:49:13.322Z,100.00
2023-04-22T05:51:39.147Z,100.00
2023-04-22T05:54:05.197Z,100.00
2023-04-22T05:56:31.231Z,100.00
2023-04-22T05:58:57.046Z,100.00
2023-04-22T06:01:24.118Z,100.00
2023-04-22T06:03:50.405Z,100.00
2023-04-22T06:06:17.205Z,100.00
2023-04-22T06:08:43.126Z,100.00
2023-04-22T06:11:09.498Z,100.00
2023-04-22T06:13:35.311Z,100.00
2023-04-22T06:16:01.596Z,100.00
2023-04-22T06:18:28.361Z,100.00
2023-04-22T06:20:55.070Z,100.00
2023-04-22T06:23:20.981Z,100.00
2023-04-22T06:25:46.808Z,100.00
2023-04-22T06:28:12.686Z,100.00
2023-04-22T06:30:38.474Z,100.00
2023-04-22T06:33:04.321Z,100.00
2023-04-22T06:35:30.827Z,100.00
2023-04-22T06:37:56.688Z,100.00
2023-04-22T06:40:22.516Z,100.00
2023-04-22T06:42:48.300Z,100.00
2023-04-22T06:45:14.204Z,100.00
2023-04-22T06:47:40.234Z,100.00
2023-04-22T06:50:08.053Z,100.00
2023-04-22T06:52:34.692Z,100.00
2023-04-22T06:55:02.524Z,100.00
2023-04-22T06:57:29.191Z,100.00
2023-04-22T06:59:55.290Z,98.68
2023-04-22T07:02:21.454Z,98.51
2023-04-22T07:04:47.484Z,99.31
2023-04-22T07:07:13.480Z,98.58
2023-04-22T07:09:39.558Z,97.94
2023-04-22T07:12:05.722Z,95.87
2023-04-22T07:14:32.359Z,94.10
2023-04-22T07:16:58.798Z,93.82
2023-04-22T07:19:24.857Z,91.23
2023-04-22T07:21:50.736Z,91.47
2023-04-22T07:24:16.566Z,93.86
2023-04-22T07:26:43.697Z,91.24
2023-04-22T07:29:10.578Z,91.48
2023-04-22T07:31:36.445Z,92.46
2023-04-22T07:34:02.590Z,93.18
2023-04-22T07:36:28.445Z,92.77
2023-04-22T07:38:54.376Z,93.39
2023-04-22T07:41:20.222Z,93.34
2023-04-22T07:43:46.008Z,93.24
2023-04-22T07:46:11.866Z,91.54
2023-04-22T07:48:37.715Z,93.03
2023-04-22T07:51:03.800Z,94.70
2023-04-22T07:53:29.642Z,95.43
2023-04-22T07:55:55.556Z,95.60
2023-04-22T07:58:21.372Z,95.77
2023-04-22T08:00:47.176Z,94.61
2023-04-22T08:03:13.731Z,95.13
2023-04-22T08:05:39.831Z,95.76
2023-04-22T08:08:05.957Z,94.86
2023-04-22T08:10:31.961Z,93.56
2023-04-22T08:12:57.821Z,92.42
2023-04-22T08:15:23.712Z,92.59
2023-04-22T08:17:49.750Z,93.18
2023-04-22T08:20:17.309Z,93.01
2023-04-22T08:22:44.101Z,90.07
2023-04-22T08:25:10.125Z,90.97
2023-04-22T08:27:37.174Z,90.18
2023-04-22T08:30:04.295Z,87.91
2023-04-22T08:32:30.106Z,89.64
2023-04-22T08:35:03.801Z,87.60
2023-04-22T08:37:31.083Z,86.55
2023-04-22T08:39:56.933Z,84.96
2023-04-22T08:42:22.861Z,85.06
2023-04-22T08:44:49.634Z,86.88
2023-04-22T08:47:16.360Z,84.33
2023-04-22T08:49:43.380Z,85.32
2023-04-22T08:52:10.966Z,84.52
2023-04-22T08:54:37.151Z,84.89
2023-04-22T08:57:04.652Z,83.37
2023-04-22T08:59:31.043Z,79.61
2023-04-22T09:01:57.965Z,77.56
2023-04-22T09:04:24.303Z,78.99
2023-04-22T09:06:50.273Z,78.87
2023-04-22T09:09:16.737Z,73.88
2023-04-22T09:11:42.716Z,73.66
2023-04-22T09:14:08.487Z,72.55
2023-04-22T09:16:42.297Z,69.73
2023-04-22T09:19:11.412Z,70.32
2023-04-22T09:21:37.329Z,67.77
2023-04-22T09:24:03.192Z,68.24
2023-04-22T09:26:30.245Z,67.93
2023-04-22T09:28:58.189Z,67.20
2023-04-22T09:31:24.976Z,68.66
2023-04-22T09:33:53.874Z,67.97
2023-04-22T09:36:36.836Z,66.47
2023-04-22T09:39:06.691Z,65.62
2023-04-22T09:41:34.908Z,66.15
2023-04-22T09:44:02.354Z,66.29
2023-04-22T09:46:32.977Z,66.29
2023-04-22T09:48:59.833Z,65.69
2023-04-22T09:51:27.333Z,66.42
2023-04-22T09:54:09.477Z,66.96
2023-04-22T09:56:52.970Z,65.61
2023-04-22T09:59:27.448Z,62.45
2023-04-22T10:01:57.870Z,63.28
2023-04-22T10:04:25.088Z,62.98
2023-04-22T10:06:52.133Z,61.97
2023-04-22T10:09:19.827Z,59.68
2023-04-22T10:11:46.691Z,58.87
2023-04-22T10:14:15.420Z,57.94
2023-04-22T10:16:45.060Z,57.10
2023-04-22T10:19:16.036Z,55.61
2023-04-22T10:21:45.003Z,54.76
2023-04-22T10:24:17.053Z,53.80
2023-04-22T10:26:58.852Z,55.69
2023-04-22T10:29:36.224Z,56.39
2023-04-22T10:32:10.791Z,57.00
2023-04-22T10:34:39.926Z,55.60
2023-04-22T10:37:08.653Z,55.87
2023-04-22T10:39:34.842Z,55.56
2023-04-22T10:42:10.742Z,54.46
2023-04-22T10:45:03.877Z,52.14
2023-04-22T10:47:33.991Z,51.61
2023-04-22T10:50:09.758Z,53.22
2023-04-22T10:52:35.723Z,52.88
2023-04-22T10:55:02.730Z,53.58
2023-04-22T10:57:37.048Z,54.76
2023-04-22T11:00:21.913Z,55.79
2023-04-22T11:03:11.221Z,56.34
2023-04-22T11:05:38.155Z,57.46
2023-04-22T11:08:07.758Z,57.92
2023-04-22T11:10:43.063Z,57.49
2023-04-22T11:13:13.255Z,56.52
2023-04-22T11:15:41.693Z,56.98
2023-04-22T11:18:11.045Z,54.64
2023-04-22T11:20:37.397Z,53.62
2023-04-22T11:23:03.986Z,52.22
2023-04-22T11:25:30.618Z,54.01
2023-04-22T11:27:57.810Z,54.76
2023-04-22T11:30:25.834Z,54.06
2023-04-22T11:32:53.319Z,54.77
2023-04-22T11:35:24.234Z,56.70
2023-04-22T11:37:57.065Z,56.10
2023-04-22T11:40:31.226Z,54.64
2023-04-22T11:43:00.903Z,53.76
2023-04-22T11:45:28.773Z,53.03
2023-04-22T11:47:55.694Z,50.31
2023-04-22T11:50:36.578Z,48.40
2023-04-22T11:53:03.931Z,48.10
2023-04-22T11:55:31.258Z,46.28
2023-04-22T11:58:11.847Z,47.25
2023-04-22T12:00:49.280Z,45.88
2023-04-22T12:03:18.474Z,45.41
2023-04-22T12:05:49.187Z,46.81
2023-04-22T12:08:17.924Z,45.14
2023-04-22T12:11:04.819Z,44.19
2023-04-22T12:13:37.365Z,44.44
2023-04-22T12:16:11.882Z,43.40
2023-04-22T12:18:49.457Z,44.38
2023-04-22T12:21:20.603Z,44.87
2023-04-22T12:23:51.959Z,44.46
2023-04-22T12:26:19.671Z,45.01
2023-04-22T12:28:46.194Z,44.01
2023-04-22T12:31:13.515Z,45.36
2023-04-22T12:33:40.460Z,46.72
2023-04-22T12:36:08.829Z,47.43
2023-04-22T12:38:35.013Z,47.20
2023-04-22T12:41:02.182Z,45.82
2023-04-22T12:43:28.006Z,46.11
2023-04-22T12:45:53.869Z,43.65
2023-04-22T12:48:19.959Z,43.50
2023-04-22T12:50:45.829Z,42.09
2023-04-22T12:53:11.711Z,41.00
2023-04-22T12:55:37.527Z,41.04
2023-04-22T12:58:03.480Z,42.55
2023-04-22T13:00:29.641Z,43.79
2023-04-22T13:02:55.514Z,44.60
2023-04-22T13:05:21.409Z,46.38
2023-04-22T13:07:56.282Z,47.69
2023-04-22T13:10:29.591Z,49.18
2023-04-22T13:13:00.570Z,49.62
2023-04-22T13:15:36.177Z,49.70
2023-04-22T13:18:02.446Z,49.97
2023-04-22T13:20:28.311Z,49.45
2023-04-22T13:22:54.356Z,49.04
2023-04-22T13:25:20.249Z,48.23
2023-04-22T13:27:46.081Z,48.07
2023-04-22T13:30:12.349Z,47.66
2023-04-22T13:32:38.223Z,47.62
2023-04-22T13:35:04.784Z,48.59
2023-04-22T13:37:30.726Z,50.06
2023-04-22T13:39:56.559Z,51.94
2023-04-22T13:42:22.397Z,52.83
2023-04-22T13:44:48.224Z,53.86
2023-04-22T13:47:14.224Z,54.47
2023-04-22T13:49:40.341Z,55.43
2023-04-22T13:52:06.329Z,55.52
2023-04-22T13:54:32.132Z,55.90
2023-04-22T13:56:58.025Z,56.29
2023-04-22T13:59:23.857Z,56.53
2023-04-22T14:01:49.689Z,56.90
2023-04-22T14:04:15.486Z,57.07
2023-04-22T14:06:41.485Z,57.79
2023-04-22T14:09:07.473Z,57.93
2023-04-22T14:11:33.449Z,57.61
2023-04-22T14:13:59.471Z,58.14
2023-04-22T14:16:25.371Z,59.95
2023-04-22T14:18:51.287Z,60.50
2023-04-22T14:21:17.100Z,58.57
2023-04-22T14:23:43.076Z,59.20
2023-04-22T14:26:10.831Z,58.23
2023-04-22T14:28:37.896Z,61.27
2023-04-22T14:31:04.052Z,64.20
2023-04-22T14:33:30.740Z,64.19
2023-04-22T14:35:56.656Z,66.01
2023-04-22T14:38:22.992Z,66.58
2023-04-22T14:40:49.256Z,68.61
2023-04-22T14:43:16.497Z,73.69
2023-04-22T14:45:42.410Z,78.10
2023-04-22T14:48:08.329Z,80.17
2023-04-22T14:50:34.477Z,84.11
2023-04-22T14:53:00.576Z,87.45
2023-04-22T14:55:27.073Z,92.47
2023-04-22T14:57:55.997Z,95.18
2023-04-22T15:00:22.348Z,96.90
2023-04-22T15:02:48.394Z,97.06
2023-04-22T15:05:14.427Z,95.69
2023-04-22T15:07:40.207Z,98.84
2023-04-22T15:10:06.749Z,99.38
2023-04-22T15:12:32.625Z,100.00
2023-04-22T15:14:58.496Z,100.00
2023-04-22T15:17:24.555Z,100.00
2023-04-22T15:19:52.542Z,100.00
2023-04-22T15:22:18.609Z,100.00
2023-04-22T15:24:44.436Z,100.00
2023-04-22T15:27:10.321Z,100.00
2023-04-22T15:29:36.198Z,100.00
2023-04-22T15:32:02.870Z,100.00
2023-04-22T15:34:28.861Z,100.00
2023-04-22T15:36:54.769Z,100.00
2023-04-22T15:39:20.720Z,100.00
2023-04-22T15:41:46.459Z,100.00
2023-04-22T15:44:12.989Z,100.00
2023-04-22T15:46:38.942Z,100.00
2023-04-22T15:49:05.231Z,100.00
2023-04-22T15:51:31.865Z,100.00
2023-04-22T15:53:57.854Z,100.00
2023-04-22T15:56:24.738Z,100.00
2023-04-22T15:58:51.480Z,100.00
2023-04-22T16:01:20.116Z,100.00
2023-04-22T16:03:47.671Z,100.00
2023-04-22T16:06:13.747Z,100.00
2023-04-22T16:08:39.730Z,100.00
2023-04-22T16:11:05.835Z,100.00
2023-04-22T16:13:31.788Z,100.00
2023-04-22T16:15:57.603Z,100.00
2023-04-22T16:18:23.865Z,100.00
2023-04-22T16:20:49.835Z,100.00
2023-04-22T16:23:15.925Z,100.00
2023-04-22T16:25:41.789Z,100.00
2023-04-22T16:28:09.652Z,100.00
2023-04-22T16:30:36.241Z,100.00
2023-04-22T16:33:02.302Z,100.00
2023-04-22T16:35:29.154Z,100.00
2023-04-22T16:37:54.947Z,100.00
2023-04-22T16:40:20.806Z,100.00
2023-04-22T16:42:46.596Z,100.00
2023-04-22T16:45:12.596Z,100.00
2023-04-22T16:47:38.889Z,100.00
2023-04-22T16:50:05.907Z,100.00
2023-04-22T16:52:31.849Z,100.00
2023-04-22T16:54:57.794Z,100.00
2023-04-22T16:57:26.701Z,100.00
2023-04-22T16:59:52.759Z,100.00
2023-04-22T17:02:18.733Z,100.00
2023-04-22T17:04:44.748Z,100.00
2023-04-22T17:07:10.685Z,100.00
2023-04-22T17:09:36.609Z,100.00
2023-04-22T17:12:02.600Z,100.00
2023-04-22T17:14:29.064Z,100.00
2023-04-22T17:16:54.892Z,100.00
2023-04-22T17:19:21.198Z,100.00
2023-04-22T17:21:47.038Z,100.00
2023-04-22T17:24:12.915Z,100.00
2023-04-22T17:26:39.077Z,100.00
2023-04-22T17:29:05.161Z,100.00
2023-04-22T17:31:32.684Z,100.00
2023-04-22T17:33:58.596Z,100.00
2023-04-22T17:36:24.618Z,100.00
2023-04-22T17:38:50.866Z,100.00
2023-04-22T17:41:17.842Z,100.00
2023-04-22T17:43:43.911Z,100.00
2023-04-22T17:46:09.949Z,100.00
2023-04-22T17:48:36.031Z,100.00
2023-04-22T17:51:04.587Z,100.00
2023-04-22T17:53:30.536Z,100.00
2023-04-22T17:55:56.388Z,100.00
2023-04-22T17:58:22.282Z,100.00
2023-04-22T18:00:48.149Z,100.00
2023-04-22T18:03:14.073Z,100.00
2023-04-22T18:05:42.550Z,100.00
2023-04-22T18:08:10.111Z,100.00
2023-04-22T18:10:36.977Z,100.00
2023-04-22T18:13:03.066Z,100.00
2023-04-22T18:15:28.915Z,100.00
2023-04-22T18:17:54.854Z,100.00
2023-04-22T18:20:20.875Z,100.00
2023-04-22T18:22:48.568Z,100.00
2023-04-22T18:25:15.298Z,100.00
2023-04-22T18:27:41.194Z,100.00
2023-04-22T18:30:07.532Z,100.00
2023-04-22T18:32:33.861Z,100.00
2023-04-22T18:35:04.605Z,100.00
2023-04-22T18:37:33.732Z,100.00
2023-04-22T18:40:00.153Z,100.00
2023-04-22T18:42:26.128Z,100.00
2023-04-22T18:44:52.528Z,100.00
2023-04-22T18:47:19.191Z,100.00
2023-04-22T18:49:45.487Z,100.00
2023-04-22T18:52:12.005Z,100.00
2023-04-22T18:54:37.927Z,100.00
2023-04-22T18:57:04.217Z,100.00
2023-04-22T18:59:30.383Z,100.00
2023-04-22T19:10:06.333Z,100.00
2023-04-22T19:12:32.612Z,100.00
2023-04-22T19:15:01.458Z,100.00
2023-04-22T19:17:28.256Z,100.00
2023-04-22T19:19:54.601Z,100.00
2023-04-22T19:22:21.199Z,100.00
2023-04-22T19:24:47.865Z,100.00
2023-04-22T19:27:14.369Z,100.00
2023-04-22T19:29:41.839Z,100.00
2023-04-22T19:32:10.142Z,100.00
2023-04-22T19:34:36.858Z,100.00
2023-04-22T19:37:03.972Z,100.00
2023-04-22T19:47:01.125Z,100.00
2023-04-22T19:49:27.944Z,100.00
2023-04-22T19:51:56.058Z,100.00
2023-04-22T19:54:24.233Z,100.00
2023-04-22T19:56:51.070Z,100.00
2023-04-22T19:59:17.870Z,100.00
2023-04-22T20:01:44.122Z,100.00
2023-04-22T20:04:10.555Z,100.00
2023-04-22T20:06:37.050Z,100.00
2023-04-22T20:09:04.791Z,100.00
2023-04-22T20:11:31.963Z,100.00
2023-04-22T20:13:59.316Z,100.00
2023-04-22T20:16:26.182Z,100.00
2023-04-22T20:18:52.802Z,100.00
2023-04-22T20:21:19.699Z,100.00
2023-04-22T20:23:47.445Z,100.00
2023-04-22T20:26:18.138Z,100.00
2023-04-22T20:28:45.849Z,100.00
2023-04-22T20:31:13.227Z,100.00
2023-04-22T20:33:39.961Z,100.00
2023-04-22T20:36:06.882Z,100.00
2023-04-22T20:38:37.056Z,100.00
2023-04-22T20:41:05.031Z,100.00
2023-04-22T20:43:32.139Z,100.00
2023-04-22T20:45:58.979Z,100.00
2023-04-22T20:48:25.246Z,100.00
2023-04-22T20:50:51.568Z,100.00
2023-04-22T20:53:17.475Z,100.00
2023-04-22T20:55:43.343Z,100.00
2023-04-22T20:58:09.897Z,100.00
2023-04-22T21:00:35.986Z,100.00
2023-04-22T21:03:03.732Z,100.00
2023-04-22T21:05:30.664Z,100.00
2023-04-22T21:07:59.425Z,100.00
2023-04-22T21:10:26.134Z,100.00
2023-04-22T21:12:53.951Z,100.00
2023-04-22T21:15:20.044Z,100.00
2023-04-22T21:17:51.171Z,100.00
2023-04-22T21:20:18.998Z,100.00
2023-04-22T21:22:45.781Z,100.00
2023-04-22T21:25:20.173Z,100.00
2023-04-22T21:27:46.647Z,100.00
2023-04-22T21:30:13.157Z,100.00
2023-04-22T21:32:40.698Z,100.00
2023-04-22T21:35:07.220Z,100.00
2023-04-22T21:37:33.874Z,100.00
2023-04-22T21:39:59.858Z,100.00
2023-04-22T21:42:25.655Z,100.00
2023-04-22T21:44:51.477Z,100.00
2023-04-22T21:47:17.449Z,100.00
2023-04-22T21:49:45.113Z,100.00
2023-04-22T21:52:11.194Z,100.00
2023-04-22T21:54:37.050Z,100.00
2023-04-22T21:57:03.071Z,100.00
2023-04-22T21:59:28.937Z,100.00
2023-04-22T22:01:54.927Z,100.00
2023-04-22T22:04:20.988Z,100.00
2023-04-22T22:06:48.156Z,100.00
2023-04-22T22:09:14.008Z,100.00
2023-04-22T22:11:39.899Z,100.00
2023-04-22T22:14:05.744Z,100.00
2023-04-22T22:16:32.479Z,100.00
2023-04-22T22:18:58.443Z,100.00
2023-04-22T22:21:24.402Z,100.00
2023-04-22T22:23:50.281Z,100.00
2023-04-22T22:26:16.113Z,100.00
2023-04-22T22:28:42.896Z,100.00
2023-04-22T22:31:08.813Z,100.00
2023-04-22T22:33:34.689Z,100.00
2023-04-22T22:36:00.716Z,100.00
2023-04-22T22:38:26.639Z,100.00
2023-04-22T22:40:52.498Z,100.00
2023-04-22T22:43:18.663Z,100.00
2023-04-22T22:45:45.102Z,100.00
2023-04-22T22:48:11.089Z,100.00
2023-04-22T22:50:37.084Z,100.00
2023-04-22T22:53:03.044Z,100.00
2023-04-22T22:55:28.851Z,100.00
2023-04-22T22:57:54.812Z,100.00
2023-04-22T23:00:20.864Z,100.00
2023-04-22T23:02:47.196Z,100.00
2023-04-22T23:05:13.316Z,100.00
2023-04-22T23:07:39.363Z,100.00
2023-04-22T23:10:06.886Z,100.00
2023-04-22T23:12:33.758Z,100.00
2023-04-22T23:14:59.866Z,100.00
2023-04-22T23:17:26.885Z,100.00
2023-04-22T23:19:53.910Z,100.00
2023-04-22T23:22:20.667Z,100.00
2023-04-22T23:24:47.050Z,100.00
2023-04-22T23:27:13.357Z,100.00
2023-04-22T23:29:39.472Z,100.00
2023-04-22T23:32:07.488Z,100.00
2023-04-22T23:34:35.997Z,100.00
2023-04-22T23:37:05.281Z,100.00
2023-04-22T23:39:32.042Z,100.00
2023-04-22T23:41:58.115Z,100.00
2023-04-22T23:44:24.001Z,100.00
2023-04-22T23:46:50.058Z,100.00
2023-04-22T23:49:16.094Z,100.00
2023-04-22T23:51:42.077Z,100.00
2023-04-22T23:54:08.227Z,100.00
2023-04-22T23:56:34.415Z,100.00
2023-04-22T23:59:00.625Z,100.00
